sensor_id;sensor_type;location;lat;lon;timestamp;pressure;altitude;pressure_sealevel;temperature;humidity
33949;BME280;20229;49.856;19.030;2023-04-26T00:00:09;101085.85;;;8.31;80.90
33949;BME280;20229;49.856;19.030;2023-04-26T00:05:29;101088.49;;;8.33;78.91
33949;BME280;20229;49.856;19.030;2023-04-26T00:10:44;101089.65;;;8.27;78.11
33949;BME280;20229;49.856;19.030;2023-04-26T00:15:58;101094.33;;;8.24;79.41
33949;BME280;20229;49.856;19.030;2023-04-26T00:21:12;101089.12;;;8.18;79.93
33949;BME280;20229;49.856;19.030;2023-04-26T00:26:26;101095.64;;;8.13;79.11
33949;BME280;20229;49.856;19.030;2023-04-26T00:31:41;101104.73;;;8.12;78.96
33949;BME280;20229;49.856;19.030;2023-04-26T00:36:55;101111.24;;;8.08;77.88
33949;BME280;20229;49.856;19.030;2023-04-26T00:42:08;101106.07;;;8.02;78.18
33949;BME280;20229;49.856;19.030;2023-04-26T00:47:24;101104.39;;;7.98;77.49
33949;BME280;20229;49.856;19.030;2023-04-26T00:52:38;101107.42;;;7.90;76.45
33949;BME280;20229;49.856;19.030;2023-04-26T00:57:53;101110.09;;;7.92;77.31
33949;BME280;20229;49.856;19.030;2023-04-26T01:03:07;101112.86;;;7.90;76.51
33949;BME280;20229;49.856;19.030;2023-04-26T01:08:22;101114.77;;;7.88;76.89
33949;BME280;20229;49.856;19.030;2023-04-26T01:13:37;101114.04;;;7.83;77.21
33949;BME280;20229;49.856;19.030;2023-04-26T01:18:52;101116.98;;;7.77;77.72
33949;BME280;20229;49.856;19.030;2023-04-26T01:24:08;101130.54;;;7.79;77.78
33949;BME280;20229;49.856;19.030;2023-04-26T01:29:23;101125.21;;;7.76;77.76
33949;BME280;20229;49.856;19.030;2023-04-26T01:34:41;101132.66;;;7.71;77.25
33949;BME280;20229;49.856;19.030;2023-04-26T01:39:54;101133.98;;;7.59;77.27
33949;BME280;20229;49.856;19.030;2023-04-26T01:45:10;101133.79;;;7.40;77.17
33949;BME280;20229;49.856;19.030;2023-04-26T01:50:24;101147.09;;;7.23;76.67
33949;BME280;20229;49.856;19.030;2023-04-26T01:55:38;101152.29;;;7.04;76.31
33949;BME280;20229;49.856;19.030;2023-04-26T02:00:51;101149.27;;;6.86;76.77
33949;BME280;20229;49.856;19.030;2023-04-26T02:06:05;101155.20;;;6.71;75.76
33949;BME280;20229;49.856;19.030;2023-04-26T02:11:20;101159.21;;;6.59;75.22
33949;BME280;20229;49.856;19.030;2023-04-26T02:16:33;101158.77;;;6.45;74.57
33949;BME280;20229;49.856;19.030;2023-04-26T02:21:55;101155.45;;;6.35;74.60
33949;BME280;20229;49.856;19.030;2023-04-26T02:27:12;101162.32;;;6.19;74.66
33949;BME280;20229;49.856;19.030;2023-04-26T02:32:26;101167.31;;;6.03;75.06
33949;BME280;20229;49.856;19.030;2023-04-26T02:37:42;101169.60;;;5.86;75.26
33949;BME280;20229;49.856;19.030;2023-04-26T02:42:56;101175.21;;;5.80;74.63
33949;BME280;20229;49.856;19.030;2023-04-26T02:48:09;101177.33;;;5.68;75.23
33949;BME280;20229;49.856;19.030;2023-04-26T02:53:23;101180.40;;;5.56;75.58
33949;BME280;20229;49.856;19.030;2023-04-26T02:58:37;101174.41;;;5.45;75.77
33949;BME280;20229;49.856;19.030;2023-04-26T03:03:51;101173.68;;;5.38;75.78
33949;BME280;20229;49.856;19.030;2023-04-26T03:09:05;101189.20;;;5.32;75.52
33949;BME280;20229;49.856;19.030;2023-04-26T03:14:18;101189.43;;;5.22;76.43
33949;BME280;20229;49.856;19.030;2023-04-26T03:19:32;101196.00;;;5.14;76.80
33949;BME280;20229;49.856;19.030;2023-04-26T03:24:47;101189.90;;;5.06;77.19
33949;BME280;20229;49.856;19.030;2023-04-26T03:30:01;101192.84;;;4.96;77.69
33949;BME280;20229;49.856;19.030;2023-04-26T03:35:16;101201.08;;;4.92;78.16
33949;BME280;20229;49.856;19.030;2023-04-26T03:40:31;101206.63;;;4.86;78.42
33949;BME280;20229;49.856;19.030;2023-04-26T03:45:48;101215.77;;;4.80;78.77
33949;BME280;20229;49.856;19.030;2023-04-26T03:51:02;101220.42;;;4.75;78.85
33949;BME280;20229;49.856;19.030;2023-04-26T03:56:17;101228.60;;;4.72;78.91
33949;BME280;20229;49.856;19.030;2023-04-26T04:01:31;101235.90;;;4.68;79.31
33949;BME280;20229;49.856;19.030;2023-04-26T04:06:46;101243.95;;;4.71;79.02
33949;BME280;20229;49.856;19.030;2023-04-26T04:12:00;101244.71;;;4.76;79.13
33949;BME280;20229;49.856;19.030;2023-04-26T04:17:15;101246.34;;;4.84;78.69
33949;BME280;20229;49.856;19.030;2023-04-26T04:22:29;101249.84;;;4.89;78.49
33949;BME280;20229;49.856;19.030;2023-04-26T04:27:43;101253.09;;;5.03;78.47
33949;BME280;20229;49.856;19.030;2023-04-26T04:32:57;101252.77;;;5.15;77.77
33949;BME280;20229;49.856;19.030;2023-04-26T04:38:12;101253.66;;;5.16;77.42
33949;BME280;20229;49.856;19.030;2023-04-26T04:43:27;101263.53;;;5.18;77.24
33949;BME280;20229;49.856;19.030;2023-04-26T04:48:41;101271.50;;;5.24;77.19
33949;BME280;20229;49.856;19.030;2023-04-26T04:53:56;101274.96;;;5.30;76.77
33949;BME280;20229;49.856;19.030;2023-04-26T04:59:10;101280.21;;;5.37;76.74
33949;BME280;20229;49.856;19.030;2023-04-26T05:04:25;101278.91;;;5.52;76.49
33949;BME280;20229;49.856;19.030;2023-04-26T05:09:40;101285.59;;;5.71;75.99
33949;BME280;20229;49.856;19.030;2023-04-26T05:14:54;101292.05;;;6.00;75.40
33949;BME280;20229;49.856;19.030;2023-04-26T05:20:08;101300.20;;;6.31;74.68
33949;BME280;20229;49.856;19.030;2023-04-26T05:25:23;101298.59;;;6.55;73.21
33949;BME280;20229;49.856;19.030;2023-04-26T05:30:37;101300.55;;;6.80;72.15
33949;BME280;20229;49.856;19.030;2023-04-26T05:35:51;101297.21;;;7.00;71.14
33949;BME280;20229;49.856;19.030;2023-04-26T05:41:06;101290.58;;;7.08;70.39
33949;BME280;20229;49.856;19.030;2023-04-26T05:46:21;101297.87;;;7.61;70.40
33949;BME280;20229;49.856;19.030;2023-04-26T05:51:35;101290.75;;;8.32;68.55
33949;BME280;20229;49.856;19.030;2023-04-26T05:56:49;101289.20;;;9.39;66.28
33949;BME280;20229;49.856;19.030;2023-04-26T06:02:02;101273.98;;;12.52;59.34
33949;BME280;20229;49.856;19.030;2023-04-26T06:07:17;101285.11;;;14.20;52.22
33949;BME280;20229;49.856;19.030;2023-04-26T06:12:31;101305.37;;;15.46;49.18
33949;BME280;20229;49.856;19.030;2023-04-26T06:17:45;101289.15;;;18.53;42.66
33949;BME280;20229;49.856;19.030;2023-04-26T06:22:59;101294.21;;;22.15;35.60
33949;BME280;20229;49.856;19.030;2023-04-26T06:28:13;101292.52;;;24.34;32.63
33949;BME280;20229;49.856;19.030;2023-04-26T06:33:26;101293.59;;;26.05;27.73
33949;BME280;20229;49.856;19.030;2023-04-26T06:38:40;101283.08;;;27.28;27.38
33949;BME280;20229;49.856;19.030;2023-04-26T06:43:54;101284.55;;;28.32;26.26
33949;BME280;20229;49.856;19.030;2023-04-26T06:49:09;101282.80;;;29.58;23.67
33949;BME280;20229;49.856;19.030;2023-04-26T06:54:30;101281.73;;;30.31;23.26
33949;BME280;20229;49.856;19.030;2023-04-26T06:59:43;101292.98;;;31.09;21.52
33949;BME280;20229;49.856;19.030;2023-04-26T07:04:57;101283.39;;;31.31;19.90
33949;BME280;20229;49.856;19.030;2023-04-26T07:10:12;101278.28;;;32.36;18.71
33949;BME280;20229;49.856;19.030;2023-04-26T07:15:27;101278.95;;;32.65;20.23
33949;BME280;20229;49.856;19.030;2023-04-26T07:20:41;101286.84;;;33.61;18.88
33949;BME280;20229;49.856;19.030;2023-04-26T07:25:54;101285.71;;;33.68;18.04
33949;BME280;20229;49.856;19.030;2023-04-26T07:31:09;101297.67;;;30.45;20.67
33949;BME280;20229;49.856;19.030;2023-04-26T07:36:22;101294.69;;;27.56;23.29
33949;BME280;20229;49.856;19.030;2023-04-26T07:41:37;101306.14;;;25.84;23.78
33949;BME280;20229;49.856;19.030;2023-04-26T07:46:50;101301.49;;;28.99;22.48
33949;BME280;20229;49.856;19.030;2023-04-26T07:52:07;101312.82;;;26.24;24.08
33949;BME280;20229;49.856;19.030;2023-04-26T07:57:21;101320.76;;;23.78;25.84
33949;BME280;20229;49.856;19.030;2023-04-26T08:02:35;101307.10;;;23.57;27.26
33949;BME280;20229;49.856;19.030;2023-04-26T08:07:49;101316.87;;;26.62;23.58
33949;BME280;20229;49.856;19.030;2023-04-26T08:13:03;101332.79;;;23.23;26.92
33949;BME280;20229;49.856;19.030;2023-04-26T08:18:16;101332.37;;;20.93;30.30
33949;BME280;20229;49.856;19.030;2023-04-26T08:23:36;101334.77;;;19.59;31.79
33949;BME280;20229;49.856;19.030;2023-04-26T08:28:50;101337.88;;;20.63;31.95
33949;BME280;20229;49.856;19.030;2023-04-26T08:34:04;101331.18;;;24.65;26.50
33949;BME280;20229;49.856;19.030;2023-04-26T08:39:18;101321.02;;;25.50;25.65
33949;BME280;20229;49.856;19.030;2023-04-26T08:44:35;101326.38;;;23.13;26.67
33949;BME280;20229;49.856;19.030;2023-04-26T08:49:53;101330.16;;;21.68;29.06
33949;BME280;20229;49.856;19.030;2023-04-26T08:55:18;101326.44;;;20.77;30.26
33949;BME280;20229;49.856;19.030;2023-04-26T09:00:34;101337.19;;;19.96;30.99
33949;BME280;20229;49.856;19.030;2023-04-26T09:05:49;101333.38;;;19.54;31.62
33949;BME280;20229;49.856;19.030;2023-04-26T09:11:03;101349.10;;;18.52;32.62
33949;BME280;20229;49.856;19.030;2023-04-26T09:16:16;101338.30;;;18.14;33.08
33949;BME280;20229;49.856;19.030;2023-04-26T09:21:30;101337.63;;;17.62;32.45
33949;BME280;20229;49.856;19.030;2023-04-26T09:26:45;101355.15;;;16.88;33.08
33949;BME280;20229;49.856;19.030;2023-04-26T09:33:10;101358.53;;;16.40;33.03
33949;BME280;20229;49.856;19.030;2023-04-26T09:38:41;101352.36;;;15.97;34.39
33949;BME280;20229;49.856;19.030;2023-04-26T09:43:55;101359.52;;;15.87;35.35
33949;BME280;20229;49.856;19.030;2023-04-26T09:49:09;101355.41;;;16.19;34.93
33949;BME280;20229;49.856;19.030;2023-04-26T09:54:46;101342.84;;;16.28;34.57
33949;BME280;20229;49.856;19.030;2023-04-26T09:59:52;101341.21;;;16.25;34.17
33949;BME280;20229;49.856;19.030;2023-04-26T10:05:09;101341.48;;;15.68;34.33
33949;BME280;20229;49.856;19.030;2023-04-26T10:10:23;101377.16;;;14.86;35.39
33949;BME280;20229;49.856;19.030;2023-04-26T10:15:38;101370.52;;;14.15;36.25
33949;BME280;20229;49.856;19.030;2023-04-26T10:20:55;101369.19;;;13.76;36.91
33949;BME280;20229;49.856;19.030;2023-04-26T10:37:11;101368.59;;;14.17;37.57
33949;BME280;20229;49.856;19.030;2023-04-26T10:42:27;101366.98;;;13.83;37.56
33949;BME280;20229;49.856;19.030;2023-04-26T10:47:45;101375.69;;;13.44;39.34
33949;BME280;20229;49.856;19.030;2023-04-26T10:53:04;101374.15;;;13.22;39.25
33949;BME280;20229;49.856;19.030;2023-04-26T10:58:28;101360.42;;;13.85;40.41
33949;BME280;20229;49.856;19.030;2023-04-26T11:09:47;101369.46;;;14.18;37.35
33949;BME280;20229;49.856;19.030;2023-04-26T11:14:59;101353.09;;;13.70;37.55
33949;BME280;20229;49.856;19.030;2023-04-26T11:20:16;101361.27;;;13.40;37.63
33949;BME280;20229;49.856;19.030;2023-04-26T11:25:30;101350.45;;;13.53;38.13
33949;BME280;20229;49.856;19.030;2023-04-26T11:30:44;101361.42;;;13.69;40.42
33949;BME280;20229;49.856;19.030;2023-04-26T11:35:57;101353.54;;;14.08;39.63
33949;BME280;20229;49.856;19.030;2023-04-26T11:41:11;101351.44;;;13.98;39.45
33949;BME280;20229;49.856;19.030;2023-04-26T11:46:25;101354.37;;;13.95;38.12
33949;BME280;20229;49.856;19.030;2023-04-26T11:51:40;101363.17;;;13.85;37.71
33949;BME280;20229;49.856;19.030;2023-04-26T11:56:54;101371.66;;;13.81;39.59
33949;BME280;20229;49.856;19.030;2023-04-26T12:02:08;101371.01;;;13.92;38.06
33949;BME280;20229;49.856;19.030;2023-04-26T12:07:33;101360.84;;;13.94;37.89
33949;BME280;20229;49.856;19.030;2023-04-26T12:12:55;101349.05;;;13.92;37.75
33949;BME280;20229;49.856;19.030;2023-04-26T12:18:10;101360.09;;;14.06;39.22
33949;BME280;20229;49.856;19.030;2023-04-26T12:23:24;101359.21;;;14.05;37.16
33949;BME280;20229;49.856;19.030;2023-04-26T12:28:39;101353.16;;;14.15;36.87
33949;BME280;20229;49.856;19.030;2023-04-26T12:33:54;101356.83;;;14.29;37.29
33949;BME280;20229;49.856;19.030;2023-04-26T12:39:10;101359.02;;;14.39;36.56
33949;BME280;20229;49.856;19.030;2023-04-26T12:44:27;101356.34;;;14.37;37.33
33949;BME280;20229;49.856;19.030;2023-04-26T12:49:41;101363.39;;;14.27;37.38
33949;BME280;20229;49.856;19.030;2023-04-26T12:54:55;101362.05;;;14.04;36.76
33949;BME280;20229;49.856;19.030;2023-04-26T13:00:11;101372.57;;;13.50;36.93
33949;BME280;20229;49.856;19.030;2023-04-26T13:05:25;101374.83;;;13.10;36.27
33949;BME280;20229;49.856;19.030;2023-04-26T13:10:42;101373.23;;;13.06;37.03
33949;BME280;20229;49.856;19.030;2023-04-26T13:15:55;101369.68;;;13.04;35.80
33949;BME280;20229;49.856;19.030;2023-04-26T13:21:09;101374.96;;;13.24;37.00
33949;BME280;20229;49.856;19.030;2023-04-26T13:26:23;101370.90;;;13.31;36.82
33949;BME280;20229;49.856;19.030;2023-04-26T13:31:37;101382.95;;;13.29;37.27
33949;BME280;20229;49.856;19.030;2023-04-26T13:36:53;101372.77;;;13.47;36.26
33949;BME280;20229;49.856;19.030;2023-04-26T13:42:10;101384.98;;;13.25;37.13
33949;BME280;20229;49.856;19.030;2023-04-26T13:47:24;101388.25;;;12.99;36.78
33949;BME280;20229;49.856;19.030;2023-04-26T13:52:38;101389.02;;;12.85;37.45
33949;BME280;20229;49.856;19.030;2023-04-26T13:57:52;101386.60;;;12.79;36.74
33949;BME280;20229;49.856;19.030;2023-04-26T14:03:05;101382.46;;;12.54;35.89
33949;BME280;20229;49.856;19.030;2023-04-26T14:08:19;101384.25;;;12.55;37.87
33949;BME280;20229;49.856;19.030;2023-04-26T14:13:35;101384.52;;;12.84;37.31
33949;BME280;20229;49.856;19.030;2023-04-26T14:18:49;101406.93;;;12.75;37.48
33949;BME280;20229;49.856;19.030;2023-04-26T14:24:04;101408.02;;;12.55;38.23
33949;BME280;20229;49.856;19.030;2023-04-26T14:29:19;101407.69;;;12.43;38.21
33949;BME280;20229;49.856;19.030;2023-04-26T14:34:33;101412.38;;;12.41;37.43
33949;BME280;20229;49.856;19.030;2023-04-26T14:39:52;101405.09;;;12.58;37.28
33949;BME280;20229;49.856;19.030;2023-04-26T14:45:07;101405.48;;;12.67;36.89
33949;BME280;20229;49.856;19.030;2023-04-26T14:50:21;101412.43;;;12.40;36.97
33949;BME280;20229;49.856;19.030;2023-04-26T14:55:34;101417.01;;;12.05;37.21
33949;BME280;20229;49.856;19.030;2023-04-26T15:00:49;101418.15;;;11.82;37.81
33949;BME280;20229;49.856;19.030;2023-04-26T15:06:07;101418.25;;;11.80;38.28
33949;BME280;20229;49.856;19.030;2023-04-26T15:11:22;101422.17;;;12.11;39.99
33949;BME280;20229;49.856;19.030;2023-04-26T15:16:36;101422.81;;;12.51;37.68
33949;BME280;20229;49.856;19.030;2023-04-26T15:21:50;101424.59;;;12.69;38.24
33949;BME280;20229;49.856;19.030;2023-04-26T15:27:04;101438.14;;;12.55;37.22
33949;BME280;20229;49.856;19.030;2023-04-26T15:32:18;101438.29;;;12.17;38.07
33949;BME280;20229;49.856;19.030;2023-04-26T15:37:31;101439.24;;;11.99;38.69
33949;BME280;20229;49.856;19.030;2023-04-26T15:42:45;101434.66;;;11.80;38.83
33949;BME280;20229;49.856;19.030;2023-04-26T15:48:01;101434.67;;;11.61;39.71
33949;BME280;20229;49.856;19.030;2023-04-26T15:53:15;101443.54;;;11.47;39.96
33949;BME280;20229;49.856;19.030;2023-04-26T15:58:29;101456.42;;;11.45;40.19
33949;BME280;20229;49.856;19.030;2023-04-26T16:03:43;101451.10;;;11.42;40.95
33949;BME280;20229;49.856;19.030;2023-04-26T16:08:58;101457.73;;;11.18;42.29
33949;BME280;20229;49.856;19.030;2023-04-26T16:14:19;101463.91;;;11.03;42.16
33949;BME280;20229;49.856;19.030;2023-04-26T16:19:34;101467.90;;;10.95;42.44
33949;BME280;20229;49.856;19.030;2023-04-26T16:24:47;101465.16;;;10.95;43.32
33949;BME280;20229;49.856;19.030;2023-04-26T16:30:02;101469.38;;;11.03;42.15
33949;BME280;20229;49.856;19.030;2023-04-26T16:35:16;101467.90;;;10.95;41.57
33949;BME280;20229;49.856;19.030;2023-04-26T16:40:30;101473.23;;;10.78;42.07
33949;BME280;20229;49.856;19.030;2023-04-26T16:45:44;101487.41;;;10.66;42.65
33949;BME280;20229;49.856;19.030;2023-04-26T16:50:59;101484.69;;;10.66;42.61
33949;BME280;20229;49.856;19.030;2023-04-26T16:56:13;101487.54;;;10.63;42.29
33949;BME280;20229;49.856;19.030;2023-04-26T17:01:27;101497.44;;;10.45;42.84
33949;BME280;20229;49.856;19.030;2023-04-26T17:06:43;101501.18;;;10.20;43.14
33949;BME280;20229;49.856;19.030;2023-04-26T17:11:56;101512.74;;;10.05;43.39
33949;BME280;20229;49.856;19.030;2023-04-26T17:17:10;101508.81;;;9.90;43.68
33949;BME280;20229;49.856;19.030;2023-04-26T17:22:25;101515.91;;;9.72;45.00
33949;BME280;20229;49.856;19.030;2023-04-26T17:27:38;101524.86;;;9.52;45.45
33949;BME280;20229;49.856;19.030;2023-04-26T17:32:52;101528.07;;;9.40;46.13
33949;BME280;20229;49.856;19.030;2023-04-26T17:38:06;101530.37;;;9.27;46.76
33949;BME280;20229;49.856;19.030;2023-04-26T17:43:20;101533.72;;;9.10;47.33
33949;BME280;20229;49.856;19.030;2023-04-26T17:48:34;101542.64;;;8.91;47.86
33949;BME280;20229;49.856;19.030;2023-04-26T17:53:48;101549.64;;;8.73;49.20
33949;BME280;20229;49.856;19.030;2023-04-26T17:59:02;101550.14;;;8.57;50.85
33949;BME280;20229;49.856;19.030;2023-04-26T18:04:15;101563.44;;;8.40;51.03
33949;BME280;20229;49.856;19.030;2023-04-26T18:09:30;101573.14;;;8.21;50.97
33949;BME280;20229;49.856;19.030;2023-04-26T18:14:44;101573.74;;;8.02;51.70
33949;BME280;20229;49.856;19.030;2023-04-26T18:19:58;101582.46;;;7.84;51.46
33949;BME280;20229;49.856;19.030;2023-04-26T18:25:12;101598.36;;;7.68;52.21
33949;BME280;20229;49.856;19.030;2023-04-26T18:30:26;101602.51;;;7.50;52.42
33949;BME280;20229;49.856;19.030;2023-04-26T18:35:40;101609.32;;;7.34;52.84
33949;BME280;20229;49.856;19.030;2023-04-26T18:40:54;101612.56;;;7.15;53.96
33949;BME280;20229;49.856;19.030;2023-04-26T18:46:08;101620.27;;;6.98;54.36
33949;BME280;20229;49.856;19.030;2023-04-26T18:51:21;101620.69;;;6.83;55.14
33949;BME280;20229;49.856;19.030;2023-04-26T18:56:35;101623.77;;;6.69;57.05
33949;BME280;20229;49.856;19.030;2023-04-26T19:01:50;101629.66;;;6.51;57.54
33949;BME280;20229;49.856;19.030;2023-04-26T19:07:04;101632.64;;;6.40;57.41
33949;BME280;20229;49.856;19.030;2023-04-26T19:12:17;101645.54;;;6.29;57.96
33949;BME280;20229;49.856;19.030;2023-04-26T19:17:31;101640.42;;;6.16;58.41
33949;BME280;20229;49.856;19.030;2023-04-26T19:22:45;101647.98;;;6.02;58.83
33949;BME280;20229;49.856;19.030;2023-04-26T19:28:04;101647.38;;;5.86;59.91
33949;BME280;20229;49.856;19.030;2023-04-26T19:33:18;101654.03;;;5.71;61.03
33949;BME280;20229;49.856;19.030;2023-04-26T19:38:33;101658.00;;;5.55;62.47
33949;BME280;20229;49.856;19.030;2023-04-26T19:43:47;101658.33;;;5.38;61.93
33949;BME280;20229;49.856;19.030;2023-04-26T19:49:01;101659.43;;;5.28;62.24
33949;BME280;20229;49.856;19.030;2023-04-26T19:54:18;101660.63;;;5.13;62.75
33949;BME280;20229;49.856;19.030;2023-04-26T19:59:32;101660.84;;;5.01;63.57
33949;BME280;20229;49.856;19.030;2023-04-26T20:04:46;101668.30;;;4.87;64.33
33949;BME280;20229;49.856;19.030;2023-04-26T20:09:59;101668.53;;;4.74;65.16
33949;BME280;20229;49.856;19.030;2023-04-26T20:15:14;101676.91;;;4.58;65.30
33949;BME280;20229;49.856;19.030;2023-04-26T20:20:28;101674.40;;;4.47;66.14
33949;BME280;20229;49.856;19.030;2023-04-26T20:25:42;101686.26;;;4.38;65.94
33949;BME280;20229;49.856;19.030;2023-04-26T20:30:57;101680.09;;;4.28;66.87
33949;BME280;20229;49.856;19.030;2023-04-26T20:36:11;101695.58;;;4.16;66.66
33949;BME280;20229;49.856;19.030;2023-04-26T20:41:25;101689.40;;;4.06;67.64
33949;BME280;20229;49.856;19.030;2023-04-26T20:46:39;101691.44;;;3.89;68.37
33949;BME280;20229;49.856;19.030;2023-04-26T20:51:53;101688.88;;;3.78;68.89
33949;BME280;20229;49.856;19.030;2023-04-26T20:57:07;101689.97;;;3.63;69.89
33949;BME280;20229;49.856;19.030;2023-04-26T21:02:20;101688.34;;;3.50;69.98
33949;BME280;20229;49.856;19.030;2023-04-26T21:07:34;101688.50;;;3.34;70.62
33949;BME280;20229;49.856;19.030;2023-04-26T21:12:49;101694.02;;;3.25;70.84
33949;BME280;20229;49.856;19.030;2023-04-26T21:18:04;101705.78;;;3.17;71.31
33949;BME280;20229;49.856;19.030;2023-04-26T21:23:18;101715.75;;;3.07;71.38
33949;BME280;20229;49.856;19.030;2023-04-26T21:28:33;101708.69;;;2.95;71.64
33949;BME280;20229;49.856;19.030;2023-04-26T21:33:51;101717.70;;;2.90;71.92
33949;BME280;20229;49.856;19.030;2023-04-26T21:39:05;101711.52;;;2.80;72.56
33949;BME280;20229;49.856;19.030;2023-04-26T21:44:19;101723.26;;;2.71;72.34
33949;BME280;20229;49.856;19.030;2023-04-26T21:49:33;101731.42;;;2.65;72.86
33949;BME280;20229;49.856;19.030;2023-04-26T21:54:48;101741.34;;;2.57;72.88
33949;BME280;20229;49.856;19.030;2023-04-26T22:00:03;101742.31;;;2.47;73.37
33949;BME280;20229;49.856;19.030;2023-04-26T22:05:24;101749.54;;;2.42;73.70
33949;BME280;20229;49.856;19.030;2023-04-26T22:10:41;101754.09;;;2.33;73.94
33949;BME280;20229;49.856;19.030;2023-04-26T22:15:55;101755.89;;;2.28;74.12
33949;BME280;20229;49.856;19.030;2023-04-26T22:21:09;101764.93;;;2.18;75.28
33949;BME280;20229;49.856;19.030;2023-04-26T22:26:23;101764.95;;;2.12;74.95
33949;BME280;20229;49.856;19.030;2023-04-26T22:31:37;101765.01;;;2.06;75.42
33949;BME280;20229;49.856;19.030;2023-04-26T22:36:53;101772.19;;;2.01;75.21
33949;BME280;20229;49.856;19.030;2023-04-26T22:42:07;101774.03;;;1.93;76.14
33949;BME280;20229;49.856;19.030;2023-04-26T22:47:21;101781.24;;;1.87;76.91
33949;BME280;20229;49.856;19.030;2023-04-26T22:52:35;101775.87;;;1.81;75.80
33949;BME280;20229;49.856;19.030;2023-04-26T22:57:49;101778.59;;;1.77;76.48
33949;BME280;20229;49.856;19.030;2023-04-26T23:03:03;101774.99;;;1.72;76.99
33949;BME280;20229;49.856;19.030;2023-04-26T23:08:16;101786.66;;;1.69;77.39
33949;BME280;20229;49.856;19.030;2023-04-26T23:13:30;101787.59;;;1.63;77.19
33949;BME280;20229;49.856;19.030;2023-04-26T23:18:44;101785.79;;;1.61;77.66
33949;BME280;20229;49.856;19.030;2023-04-26T23:23:58;101787.59;;;1.57;78.43
33949;BME280;20229;49.856;19.030;2023-04-26T23:29:12;101780.43;;;1.56;77.83
33949;BME280;20229;49.856;19.030;2023-04-26T23:34:26;101789.41;;;1.52;78.76
33949;BME280;20229;49.856;19.030;2023-04-26T23:39:41;101788.48;;;1.55;78.67
33949;BME280;20229;49.856;19.030;2023-04-26T23:44:55;101805.54;;;1.57;78.98
33949;BME280;20229;49.856;19.030;2023-04-26T23:50:09;101799.24;;;1.61;79.46
33949;BME280;20229;49.856;19.030;2023-04-26T23:55:23;101801.03;;;1.59;79.13
